createdAt,value
2018-11-26T00:00:51.179Z,61.80
2018-11-26T00:01:51.197Z,60.50
2018-11-26T00:02:51.175Z,59.90
2018-11-26T00:03:51.179Z,58.90
2018-11-26T00:04:51.187Z,59.30
2018-11-26T00:05:51.198Z,58.60
2018-11-26T00:06:51.189Z,59.50
2018-11-26T00:07:51.198Z,56.60
2018-11-26T00:08:51.173Z,56.90
2018-11-26T00:09:51.173Z,56.30
2018-11-26T00:10:51.163Z,55.90
2018-11-26T00:11:51.169Z,57.70
2018-11-26T00:12:51.169Z,57.30
2018-11-26T00:13:51.158Z,58.20
2018-11-26T00:14:51.166Z,55.80
2018-11-26T00:15:51.171Z,59.20
2018-11-26T00:16:51.165Z,57.00
2018-11-26T00:17:51.174Z,55.00
2018-11-26T00:18:51.157Z,58.00
2018-11-26T00:19:51.166Z,56.00
2018-11-26T00:20:51.159Z,55.80
2018-11-26T00:21:51.147Z,57.20
2018-11-26T00:22:51.147Z,57.60
2018-11-26T00:23:51.144Z,56.30
2018-11-26T00:24:51.145Z,54.30
2018-11-26T00:25:51.136Z,54.50
2018-11-26T00:26:51.147Z,56.90
2018-11-26T00:27:51.137Z,56.90
2018-11-26T00:28:51.138Z,57.20
2018-11-26T00:29:51.141Z,53.90
2018-11-26T00:30:51.144Z,60.90
2018-11-26T00:31:51.140Z,57.10
2018-11-26T00:32:51.153Z,54.70
2018-11-26T00:33:51.132Z,56.00
2018-11-26T00:34:51.120Z,54.80
2018-11-26T00:35:51.126Z,52.30
2018-11-26T00:36:51.125Z,59.00
2018-11-26T00:37:51.127Z,60.40
2018-11-26T00:38:51.111Z,55.00
2018-11-26T00:39:51.120Z,54.90
2018-11-26T00:40:51.119Z,57.80
2018-11-26T00:41:51.110Z,55.60
2018-11-26T00:42:51.117Z,54.90
2018-11-26T00:43:51.098Z,53.80
2018-11-26T00:44:51.103Z,56.60
2018-11-26T00:45:51.120Z,53.30
2018-11-26T00:46:51.115Z,51.40
2018-11-26T00:47:51.110Z,50.70
2018-11-26T00:48:51.090Z,53.90
2018-11-26T00:49:51.091Z,54.30
2018-11-26T00:50:51.103Z,53.00
2018-11-26T00:51:53.848Z,52.20
2018-11-26T00:52:51.093Z,52.80
2018-11-26T00:53:51.083Z,55.80
2018-11-26T00:54:51.091Z,52.90
2018-11-26T00:55:51.088Z,53.20
2018-11-26T00:56:51.096Z,54.40
2018-11-26T00:57:51.078Z,51.50
2018-11-26T00:58:51.099Z,52.30
2018-11-26T00:59:51.078Z,53.10
2018-11-26T01:00:51.078Z,51.60
2018-11-26T01:01:51.063Z,49.00
2018-11-26T01:02:51.073Z,50.10
2018-11-26T01:03:51.094Z,53.10
2018-11-26T01:04:51.057Z,51.80
2018-11-26T01:05:51.061Z,50.00
2018-11-26T01:06:51.061Z,51.00
2018-11-26T01:07:51.061Z,51.70
2018-11-26T01:08:51.052Z,50.80
2018-11-26T01:09:51.049Z,49.90
2018-11-26T01:10:51.043Z,52.70
2018-11-26T01:11:51.064Z,52.10
2018-11-26T01:12:51.043Z,49.00
2018-11-26T01:13:51.047Z,51.50
2018-11-26T01:14:51.049Z,49.60
2018-11-26T01:15:51.033Z,49.40
2018-11-26T01:16:51.059Z,48.40
2018-11-26T01:17:51.037Z,50.50
2018-11-26T01:18:51.047Z,48.10
2018-11-26T01:19:51.041Z,52.90
2018-11-26T01:20:51.041Z,51.60
2018-11-26T01:21:51.065Z,46.00
2018-11-26T01:22:51.056Z,48.80
2018-11-26T01:23:51.031Z,48.60
2018-11-26T01:24:51.021Z,47.60
2018-11-26T01:25:51.022Z,49.70
2018-11-26T01:26:51.011Z,46.90
2018-11-26T01:27:51.034Z,50.10
2018-11-26T01:28:51.028Z,50.70
2018-11-26T01:29:51.024Z,47.60
2018-11-26T01:30:51.029Z,48.40
2018-11-26T01:31:51.026Z,46.90
2018-11-26T01:32:51.017Z,53.00
2018-11-26T01:33:51.006Z,50.90
2018-11-26T01:34:51.006Z,50.40
2018-11-26T01:35:51.003Z,49.60
2018-11-26T01:36:51.008Z,48.30
2018-11-26T01:37:51.000Z,49.70
2018-11-26T01:38:50.997Z,50.40
2018-11-26T01:39:50.999Z,48.40
2018-11-26T01:40:50.993Z,48.40
2018-11-26T01:41:51.005Z,46.80
2018-11-26T01:42:50.988Z,47.90
2018-11-26T01:43:50.989Z,50.30
2018-11-26T01:44:50.988Z,50.80
2018-11-26T01:45:50.983Z,50.30
2018-11-26T01:46:50.980Z,47.30
2018-11-26T01:47:50.988Z,48.50
2018-11-26T01:48:50.978Z,46.30
2018-11-26T01:49:50.964Z,49.40
2018-11-26T01:50:51.007Z,49.60
2018-11-26T01:51:50.975Z,46.10
2018-11-26T01:52:50.960Z,49.60
2018-11-26T01:53:50.978Z,49.90
2018-11-26T01:54:50.969Z,48.50
2018-11-26T01:55:50.975Z,50.50
2018-11-26T01:56:50.968Z,47.70
2018-11-26T01:57:50.959Z,49.50
2018-11-26T01:58:50.957Z,50.20
2018-11-26T01:59:50.967Z,48.00
2018-11-26T02:00:50.956Z,45.20
2018-11-26T02:01:50.951Z,45.30
2018-11-26T02:02:50.949Z,48.50
2018-11-26T02:03:50.940Z,48.90
2018-11-26T02:04:50.963Z,49.90
2018-11-26T02:05:50.942Z,46.00
2018-11-26T02:06:50.939Z,46.20
2018-11-26T02:07:50.976Z,46.60
2018-11-26T02:08:50.945Z,49.20
2018-11-26T02:09:50.938Z,46.40
2018-11-26T02:10:50.929Z,45.60
2018-11-26T02:11:50.924Z,47.60
2018-11-26T02:12:50.944Z,46.90
2018-11-26T02:13:50.989Z,49.70
2018-11-26T02:14:50.918Z,46.70
2018-11-26T02:15:50.920Z,44.20
2018-11-26T02:16:50.915Z,47.40
2018-11-26T02:17:50.919Z,46.30
2018-11-26T02:18:50.913Z,47.50
2018-11-26T02:19:50.928Z,48.20
2018-11-26T02:20:50.921Z,44.50
2018-11-26T02:21:50.944Z,44.40
2018-11-26T02:22:50.901Z,46.50
2018-11-26T02:23:50.906Z,47.70
2018-11-26T02:24:50.912Z,45.00
2018-11-26T02:25:50.924Z,49.70
2018-11-26T02:26:50.898Z,46.80
2018-11-26T02:27:50.895Z,48.40
2018-11-26T02:28:50.907Z,44.80
2018-11-26T02:29:50.900Z,46.40
2018-11-26T02:30:50.896Z,43.70
2018-11-26T02:31:50.890Z,49.10
2018-11-26T02:32:50.904Z,44.90
2018-11-26T02:33:50.910Z,44.60
2018-11-26T02:34:50.879Z,44.60
2018-11-26T02:35:50.878Z,44.70
2018-11-26T02:36:50.891Z,44.60
2018-11-26T02:37:50.890Z,44.10
2018-11-26T02:38:50.883Z,44.50
2018-11-26T02:39:50.877Z,44.90
2018-11-26T02:40:50.869Z,47.40
2018-11-26T02:41:50.895Z,44.00
2018-11-26T02:42:50.891Z,44.00
2018-11-26T02:43:50.878Z,45.10
2018-11-26T02:44:50.883Z,46.00
2018-11-26T02:45:50.882Z,45.10
2018-11-26T02:46:50.862Z,46.20
2018-11-26T02:47:50.865Z,43.50
2018-11-26T02:48:50.864Z,43.30
2018-11-26T02:49:50.861Z,43.60
2018-11-26T02:50:50.850Z,42.60
2018-11-26T02:51:50.862Z,45.80
2018-11-26T02:52:50.854Z,43.50
2018-11-26T02:53:50.864Z,45.30
2018-11-26T02:54:50.854Z,46.30
2018-11-26T02:55:50.848Z,45.70
2018-11-26T02:56:50.843Z,46.80
2018-11-26T02:57:50.848Z,45.00
2018-11-26T02:58:50.837Z,45.20
2018-11-26T02:59:50.839Z,44.30
2018-11-26T03:00:50.842Z,43.30
2018-11-26T03:01:50.831Z,43.30
2018-11-26T03:02:50.861Z,45.10
2018-11-26T03:03:50.834Z,45.40
2018-11-26T03:04:50.856Z,46.70
2018-11-26T03:05:50.839Z,45.00
2018-11-26T03:06:50.841Z,46.50
2018-11-26T03:07:50.834Z,42.90
2018-11-26T03:08:50.847Z,43.00
2018-11-26T03:09:50.821Z,44.80
2018-11-26T03:10:50.813Z,43.30
2018-11-26T03:11:50.817Z,43.90
2018-11-26T03:12:50.815Z,45.20
2018-11-26T03:13:50.819Z,46.30
2018-11-26T03:14:50.806Z,44.80
2018-11-26T03:15:50.808Z,45.30
2018-11-26T03:16:50.812Z,43.60
2018-11-26T03:17:50.799Z,45.50
2018-11-26T03:18:50.799Z,44.30
2018-11-26T03:19:50.803Z,43.10
2018-11-26T03:20:50.812Z,44.40
2018-11-26T03:21:50.825Z,45.70
2018-11-26T03:22:50.799Z,44.00
2018-11-26T03:23:50.789Z,47.30
2018-11-26T03:24:50.795Z,47.60
2018-11-26T03:25:50.794Z,43.90
2018-11-26T03:26:50.793Z,45.80
2018-11-26T03:27:50.803Z,46.40
2018-11-26T03:28:50.781Z,44.80
2018-11-26T03:29:50.789Z,48.30
2018-11-26T03:30:50.783Z,46.10
2018-11-26T03:31:50.785Z,48.50
2018-11-26T03:32:50.788Z,48.10
2018-11-26T03:33:50.800Z,44.60
2018-11-26T03:34:50.794Z,47.70
2018-11-26T03:35:50.777Z,49.20
2018-11-26T03:36:50.763Z,45.80
2018-11-26T03:37:50.771Z,45.30
2018-11-26T03:38:50.767Z,46.10
2018-11-26T03:39:50.771Z,47.70
2018-11-26T03:40:50.782Z,45.60
2018-11-26T03:41:50.777Z,46.40
2018-11-26T03:42:50.774Z,46.90
2018-11-26T03:43:50.769Z,45.20
2018-11-26T03:44:50.762Z,49.10
2018-11-26T03:45:50.780Z,45.90
2018-11-26T03:46:50.754Z,45.60
2018-11-26T03:47:50.750Z,46.40
2018-11-26T03:48:50.754Z,44.30
2018-11-26T03:49:50.747Z,46.20
2018-11-26T03:50:50.752Z,45.70
2018-11-26T03:51:50.737Z,45.40
2018-11-26T03:52:50.751Z,45.20
2018-11-26T03:53:50.730Z,45.60
2018-11-26T03:54:50.740Z,45.60
2018-11-26T03:55:50.735Z,46.40
2018-11-26T03:56:50.736Z,46.10
2018-11-26T03:57:50.768Z,49.50
2018-11-26T03:58:50.752Z,47.20
2018-11-26T03:59:50.731Z,49.20
2018-11-26T04:00:50.753Z,45.90
2018-11-26T04:01:50.732Z,46.80
2018-11-26T04:02:50.733Z,46.30
2018-11-26T04:03:50.715Z,47.80
2018-11-26T04:04:50.730Z,46.70
2018-11-26T04:05:50.722Z,46.10
2018-11-26T04:06:50.753Z,44.40
2018-11-26T04:07:50.725Z,44.60
2018-11-26T04:08:50.718Z,45.90
2018-11-26T04:09:50.717Z,46.20
2018-11-26T04:10:50.717Z,49.60
2018-11-26T04:11:50.707Z,46.10
2018-11-26T04:12:50.715Z,47.40
2018-11-26T04:13:50.707Z,46.60
2018-11-26T04:14:50.701Z,47.40
2018-11-26T04:15:50.702Z,44.80
2018-11-26T04:16:50.709Z,46.30
2018-11-26T04:17:50.689Z,47.20
2018-11-26T04:18:50.687Z,47.30
2018-11-26T04:19:50.716Z,47.60
2018-11-26T04:20:50.691Z,46.90
2018-11-26T04:21:50.698Z,46.60
2018-11-26T04:22:50.702Z,44.80
2018-11-26T04:23:50.690Z,48.00
2018-11-26T04:24:50.687Z,49.10
2018-11-26T04:25:50.688Z,47.00
2018-11-26T04:26:50.687Z,48.10
2018-11-26T04:27:50.690Z,42.70
2018-11-26T04:28:50.680Z,44.30
2018-11-26T04:29:50.677Z,44.60
2018-11-26T04:30:50.663Z,49.00
2018-11-26T04:31:50.677Z,45.90
2018-11-26T04:32:50.673Z,45.10
2018-11-26T04:33:50.676Z,48.30
2018-11-26T04:34:50.683Z,43.60
2018-11-26T04:35:50.675Z,47.40
2018-11-26T04:36:50.682Z,47.20
2018-11-26T04:37:50.666Z,46.60
2018-11-26T04:38:50.671Z,46.70
2018-11-26T04:39:50.667Z,48.60
2018-11-26T04:40:50.649Z,46.90
2018-11-26T04:41:50.671Z,46.90
2018-11-26T04:42:50.660Z,49.70
2018-11-26T04:43:50.664Z,46.10
2018-11-26T04:44:50.675Z,47.40
2018-11-26T04:45:50.668Z,46.10
2018-11-26T04:46:50.664Z,46.70
2018-11-26T04:47:50.653Z,45.10
2018-11-26T04:48:50.643Z,46.10
2018-11-26T04:49:50.641Z,44.90
2018-11-26T04:50:50.634Z,46.20
2018-11-26T04:51:50.640Z,46.20
2018-11-26T04:52:50.634Z,44.60
2018-11-26T04:53:50.642Z,46.40
2018-11-26T04:54:50.664Z,46.10
2018-11-26T04:55:50.635Z,49.20
2018-11-26T04:56:50.650Z,44.10
2018-11-26T04:57:50.635Z,44.40
2018-11-26T04:58:50.681Z,46.50
2018-11-26T04:59:50.681Z,48.10
2018-11-26T05:00:50.634Z,46.60
2018-11-26T05:01:50.631Z,45.50
2018-11-26T05:02:50.665Z,42.60
2018-11-26T05:03:50.626Z,44.80
2018-11-26T05:04:50.635Z,45.20
2018-11-26T05:05:50.619Z,46.70
2018-11-26T05:06:50.612Z,44.00
2018-11-26T05:07:50.620Z,43.80
2018-11-26T05:08:50.612Z,44.80
2018-11-26T05:09:50.627Z,45.60
2018-11-26T05:10:51.222Z,45.60
2018-11-26T05:11:50.626Z,46.70
2018-11-26T05:12:50.613Z,44.10
2018-11-26T05:13:50.605Z,45.30
2018-11-26T05:14:50.601Z,44.90
2018-11-26T05:15:50.603Z,42.40
2018-11-26T05:16:50.592Z,47.60
2018-11-26T05:17:50.619Z,47.40
2018-11-26T05:18:50.584Z,46.30
2018-11-26T05:19:50.620Z,46.50
2018-11-26T05:20:50.601Z,46.10
2018-11-26T05:21:50.580Z,44.70
2018-11-26T05:22:50.603Z,44.20
2018-11-26T05:23:50.582Z,45.20
2018-11-26T05:24:50.579Z,45.10
2018-11-26T05:25:50.591Z,44.20
2018-11-26T05:26:50.578Z,46.50
2018-11-26T05:27:50.569Z,44.60
2018-11-26T05:28:50.583Z,46.20
2018-11-26T05:29:50.575Z,45.40
2018-11-26T05:30:50.570Z,44.20
2018-11-26T05:31:50.571Z,47.80
2018-11-26T05:32:50.584Z,44.00
2018-11-26T05:33:50.578Z,44.90
2018-11-26T05:34:50.560Z,41.90
2018-11-26T05:35:50.564Z,44.20
2018-11-26T05:36:50.562Z,45.10
2018-11-26T05:37:50.582Z,43.60
2018-11-26T05:38:50.559Z,42.10
2018-11-26T05:39:50.550Z,42.70
2018-11-26T05:40:50.545Z,45.30
2018-11-26T05:41:50.545Z,43.20
2018-11-26T05:42:50.554Z,43.40
2018-11-26T05:43:50.541Z,41.90
2018-11-26T05:44:50.534Z,43.80
2018-11-26T05:45:50.556Z,42.90
2018-11-26T05:46:50.534Z,43.10
2018-11-26T05:47:50.572Z,46.20
2018-11-26T05:48:50.546Z,45.30
2018-11-26T05:49:50.528Z,43.40
2018-11-26T05:50:50.539Z,44.60
2018-11-26T05:51:50.531Z,42.90
2018-11-26T05:52:50.528Z,47.70
2018-11-26T05:53:50.520Z,43.60
2018-11-26T05:54:50.547Z,43.60
2018-11-26T05:55:50.538Z,45.40
2018-11-26T05:56:50.520Z,47.30
2018-11-26T05:57:50.527Z,44.30
2018-11-26T05:58:50.530Z,45.00
2018-11-26T05:59:50.514Z,41.80
2018-11-26T06:00:50.526Z,43.30
2018-11-26T06:01:50.544Z,47.40
2018-11-26T06:02:50.525Z,43.00
2018-11-26T06:03:50.519Z,45.80
2018-11-26T06:04:50.516Z,46.50
2018-11-26T06:05:50.509Z,43.40
2018-11-26T06:06:50.512Z,44.30
2018-11-26T06:07:50.508Z,44.20
2018-11-26T06:08:50.501Z,42.80
2018-11-26T06:09:50.517Z,43.40
2018-11-26T06:10:50.521Z,45.90
2018-11-26T06:11:50.534Z,45.30
2018-11-26T06:12:50.511Z,44.20
2018-11-26T06:13:50.505Z,43.50
2018-11-26T06:14:50.496Z,44.00
2018-11-26T06:15:50.483Z,43.20
2018-11-26T06:16:53.659Z,45.70
2018-11-26T06:17:50.485Z,48.50
2018-11-26T06:18:50.494Z,45.70
2018-11-26T06:19:50.496Z,42.90
2018-11-26T06:20:50.487Z,44.10
2018-11-26T06:21:50.472Z,46.10
2018-11-26T06:22:50.477Z,43.80
2018-11-26T06:23:50.471Z,44.20
2018-11-26T06:24:50.529Z,42.50
2018-11-26T06:25:50.472Z,44.60
2018-11-26T06:26:50.466Z,44.60
2018-11-26T06:27:50.469Z,44.90
2018-11-26T06:28:50.468Z,47.30
2018-11-26T06:29:50.484Z,46.80
2018-11-26T06:30:50.479Z,46.50
2018-11-26T06:31:50.459Z,44.60
2018-11-26T06:32:50.483Z,47.40
2018-11-26T06:33:50.459Z,45.90
2018-11-26T06:34:50.467Z,48.90
2018-11-26T06:35:50.482Z,48.50
2018-11-26T06:36:50.467Z,46.90
2018-11-26T06:37:50.476Z,46.20
2018-11-26T06:38:50.465Z,50.00
2018-11-26T06:39:50.453Z,48.20
2018-11-26T06:40:50.465Z,44.50
2018-11-26T06:41:50.440Z,48.00
2018-11-26T06:42:50.440Z,48.60
2018-11-26T06:43:50.452Z,45.70
2018-11-26T06:44:50.441Z,44.70
2018-11-26T06:45:50.441Z,46.40
2018-11-26T06:46:50.463Z,45.80
2018-11-26T06:47:50.443Z,43.90
2018-11-26T06:48:50.454Z,47.50
2018-11-26T06:49:50.451Z,44.30
2018-11-26T06:50:50.455Z,46.40
2018-11-26T06:51:50.443Z,46.20
2018-11-26T06:52:50.441Z,44.90
2018-11-26T06:53:50.436Z,46.20
2018-11-26T06:54:50.424Z,43.90
2018-11-26T06:55:50.428Z,47.60
2018-11-26T06:56:50.428Z,46.00
2018-11-26T06:57:50.429Z,45.80
2018-11-26T06:58:50.418Z,45.50
2018-11-26T06:59:50.420Z,46.10
2018-11-26T07:00:50.425Z,47.50
2018-11-26T07:01:50.418Z,49.10
2018-11-26T07:02:50.412Z,51.00
2018-11-26T07:03:50.414Z,51.20
2018-11-26T07:04:50.404Z,55.90
2018-11-26T07:05:50.765Z,53.30
2018-11-26T07:06:50.404Z,50.00
2018-11-26T07:07:50.402Z,54.70
2018-11-26T07:08:50.408Z,54.30
2018-11-26T07:09:50.446Z,52.50
2018-11-26T07:10:50.399Z,54.30
2018-11-26T07:11:50.425Z,52.40
2018-11-26T07:12:50.396Z,54.00
2018-11-26T07:13:50.391Z,55.10
2018-11-26T07:14:50.396Z,57.70
2018-11-26T07:15:50.432Z,60.00
2018-11-26T07:16:50.404Z,58.40
2018-11-26T07:17:50.386Z,59.70
2018-11-26T07:18:50.415Z,58.90
2018-11-26T07:19:50.383Z,60.80
2018-11-26T07:20:50.391Z,59.60
2018-11-26T07:21:50.387Z,63.90
2018-11-26T07:22:50.393Z,61.10
2018-11-26T07:23:50.417Z,64.70
2018-11-26T07:24:50.371Z,61.20
2018-11-26T07:25:50.445Z,59.40
2018-11-26T07:26:50.364Z,63.70
2018-11-26T07:27:50.380Z,61.80
2018-11-26T07:28:50.364Z,65.10
2018-11-26T07:29:50.393Z,65.70
2018-11-26T07:30:50.360Z,66.60
2018-11-26T07:31:50.392Z,60.70
2018-11-26T07:32:50.364Z,60.60
2018-11-26T07:33:50.368Z,59.80
2018-11-26T07:34:50.371Z,63.50
2018-11-26T07:35:50.358Z,62.70
2018-11-26T07:36:50.366Z,66.30
2018-11-26T07:37:50.368Z,64.20
2018-11-26T07:38:50.350Z,62.30
2018-11-26T07:39:50.353Z,60.10
2018-11-26T07:40:50.361Z,65.10
2018-11-26T07:41:50.357Z,68.70
2018-11-26T07:42:50.351Z,62.40
2018-11-26T07:43:50.374Z,62.10
2018-11-26T07:44:50.356Z,64.00
2018-11-26T07:45:50.345Z,66.00
2018-11-26T07:46:50.333Z,66.50
2018-11-26T07:47:50.345Z,65.80
2018-11-26T07:48:50.401Z,68.30
2018-11-26T07:49:50.335Z,63.50
2018-11-26T07:50:50.342Z,63.80
2018-11-26T07:51:50.341Z,66.00
2018-11-26T07:52:50.345Z,62.60
2018-11-26T07:53:50.334Z,67.10
2018-11-26T07:54:50.322Z,63.20
2018-11-26T07:55:50.343Z,65.10
2018-11-26T07:56:50.320Z,63.90
2018-11-26T07:57:50.326Z,65.40
2018-11-26T07:58:50.374Z,65.10
2018-11-26T07:59:50.323Z,67.80
2018-11-26T08:00:50.315Z,70.20
2018-11-26T08:01:50.333Z,67.60
2018-11-26T08:02:50.309Z,68.00
2018-11-26T08:03:50.310Z,70.30
2018-11-26T08:04:50.329Z,64.60
2018-11-26T08:05:50.299Z,72.30
2018-11-26T08:06:50.340Z,72.50
2018-11-26T08:07:50.971Z,72.10
2018-11-26T08:08:50.336Z,70.30
2018-11-26T08:09:50.314Z,71.10
2018-11-26T08:10:50.317Z,72.30
2018-11-26T08:11:50.309Z,72.80
2018-11-26T08:12:50.296Z,79.80
2018-11-26T08:13:50.290Z,73.70
2018-11-26T08:14:50.329Z,74.10
2018-11-26T08:15:50.306Z,71.20
2018-11-26T08:16:50.297Z,72.50
2018-11-26T08:17:50.320Z,71.80
2018-11-26T08:18:50.315Z,75.00
2018-11-26T08:19:50.326Z,72.00
2018-11-26T08:20:50.288Z,70.40
2018-11-26T08:21:50.286Z,74.30
2018-11-26T08:22:50.277Z,73.20
2018-11-26T08:23:50.283Z,72.80
2018-11-26T08:24:50.279Z,77.60
2018-11-26T08:25:50.280Z,74.20
2018-11-26T08:26:50.299Z,74.30
2018-11-26T08:27:50.308Z,75.80
2018-11-26T08:28:50.273Z,76.40
2018-11-26T08:29:50.288Z,77.00
2018-11-26T08:30:50.269Z,73.60
2018-11-26T08:31:50.282Z,78.40
2018-11-26T08:32:50.262Z,77.50
2018-11-26T08:33:50.278Z,81.20
2018-11-26T08:34:50.257Z,75.50
2018-11-26T08:35:50.281Z,73.80
2018-11-26T08:36:50.273Z,74.50
2018-11-26T08:37:50.261Z,75.90
2018-11-26T08:38:50.257Z,74.90
2018-11-26T08:39:50.283Z,76.80
2018-11-26T08:40:50.275Z,75.20
2018-11-26T08:41:50.260Z,73.00
2018-11-26T08:42:50.244Z,76.70
2018-11-26T08:43:50.255Z,75.40
2018-11-26T08:44:50.246Z,74.70
2018-11-26T08:45:50.240Z,77.20
2018-11-26T08:46:50.250Z,76.80
2018-11-26T08:47:50.244Z,70.50
2018-11-26T08:48:50.268Z,79.00
2018-11-26T08:49:50.243Z,80.70
2018-11-26T08:50:50.257Z,79.50
2018-11-26T08:51:50.236Z,78.10
2018-11-26T08:52:50.231Z,72.60
2018-11-26T08:53:50.236Z,72.50
2018-11-26T08:54:50.243Z,72.60
2018-11-26T08:55:50.227Z,78.20
2018-11-26T08:56:50.223Z,75.70
2018-11-26T08:57:50.228Z,77.30
2018-11-26T08:58:50.289Z,79.20
2018-11-26T08:59:50.233Z,73.50
2018-11-26T09:00:50.220Z,73.90
2018-11-26T09:01:50.232Z,70.80
2018-11-26T09:02:50.233Z,75.60
2018-11-26T09:03:50.234Z,75.40
2018-11-26T09:04:50.217Z,72.00
2018-11-26T09:05:50.258Z,71.10
2018-11-26T09:06:50.222Z,75.40
2018-11-26T09:07:50.214Z,76.00
2018-11-26T09:08:50.223Z,72.40
2018-11-26T09:09:50.224Z,72.50
2018-11-26T09:10:50.208Z,70.30
2018-11-26T09:11:50.207Z,72.40
2018-11-26T09:12:50.222Z,71.10
2018-11-26T09:13:51.945Z,72.40
2018-11-26T09:14:50.212Z,67.50
2018-11-26T09:15:50.202Z,66.80
2018-11-26T09:16:50.199Z,75.70
2018-11-26T09:17:50.207Z,70.00
2018-11-26T09:18:50.212Z,73.90
2018-11-26T09:19:50.210Z,77.10
2018-11-26T09:20:50.222Z,71.10
2018-11-26T09:21:50.180Z,71.30
2018-11-26T09:22:50.179Z,67.90
2018-11-26T09:23:50.189Z,67.50
2018-11-26T09:24:50.176Z,67.50
2018-11-26T09:25:50.204Z,66.90
2018-11-26T09:26:50.190Z,69.20
2018-11-26T09:27:50.201Z,69.70
2018-11-26T09:28:50.180Z,70.20
2018-11-26T09:29:50.188Z,71.70
2018-11-26T09:30:50.177Z,74.10
2018-11-26T09:31:50.179Z,73.00
2018-11-26T09:32:50.266Z,68.80
2018-11-26T09:33:50.173Z,72.30
2018-11-26T09:34:50.166Z,72.60
2018-11-26T09:35:50.197Z,71.40
2018-11-26T09:36:50.168Z,69.30
2018-11-26T09:37:50.169Z,72.50
2018-11-26T09:38:50.191Z,67.70
2018-11-26T09:39:50.175Z,72.60
2018-11-26T09:40:50.172Z,70.40
2018-11-26T09:41:50.180Z,74.40
2018-11-26T09:42:50.152Z,77.00
2018-11-26T09:43:50.184Z,74.50
2018-11-26T09:44:50.158Z,71.50
2018-11-26T09:45:50.156Z,70.70
2018-11-26T09:46:50.172Z,68.50
2018-11-26T09:47:50.178Z,74.00
2018-11-26T09:48:50.173Z,68.90
2018-11-26T09:49:50.149Z,69.30
2018-11-26T09:50:50.151Z,69.20
2018-11-26T09:51:50.151Z,69.40
2018-11-26T09:52:50.148Z,72.60
2018-11-26T09:53:50.144Z,73.40
2018-11-26T09:54:50.138Z,69.60
2018-11-26T09:55:50.142Z,70.80
2018-11-26T09:56:50.133Z,73.00
2018-11-26T09:57:50.148Z,67.40
2018-11-26T09:58:50.159Z,71.80
2018-11-26T09:59:50.162Z,68.30
2018-11-26T10:00:50.151Z,73.90
2018-11-26T10:01:50.152Z,69.70
2018-11-26T10:02:50.128Z,70.10
2018-11-26T10:03:50.150Z,68.90
2018-11-26T10:04:50.134Z,66.60
2018-11-26T10:05:50.141Z,70.40
2018-11-26T10:06:50.181Z,65.70
2018-11-26T10:07:50.146Z,66.00
2018-11-26T10:08:50.138Z,63.40
2018-11-26T10:09:50.139Z,63.50
2018-11-26T10:10:50.143Z,64.60
2018-11-26T10:11:50.159Z,62.10
2018-11-26T10:12:50.136Z,64.70
2018-11-26T10:13:50.137Z,61.30
2018-11-26T10:14:50.150Z,65.90
2018-11-26T10:15:50.121Z,62.00
2018-11-26T10:16:50.125Z,59.40
2018-11-26T10:17:50.153Z,64.00
2018-11-26T10:18:50.122Z,62.90
2018-11-26T10:19:50.137Z,61.70
2018-11-26T10:20:50.122Z,62.60
2018-11-26T10:21:50.117Z,64.10
2018-11-26T10:22:50.168Z,62.00
2018-11-26T10:23:50.115Z,58.60
2018-11-26T10:24:50.286Z,62.90
2018-11-26T10:25:50.107Z,56.70
2018-11-26T10:26:50.112Z,58.00
2018-11-26T10:27:50.127Z,56.20
2018-11-26T10:28:50.125Z,54.50
2018-11-26T10:29:50.114Z,54.90
2018-11-26T10:30:50.104Z,55.90
2018-11-26T10:31:50.985Z,55.00
2018-11-26T10:32:50.109Z,56.60
2018-11-26T10:33:50.111Z,56.70
2018-11-26T10:34:50.087Z,55.90
2018-11-26T10:35:50.200Z,52.10
2018-11-26T10:36:50.099Z,53.30
2018-11-26T10:37:50.100Z,53.10
2018-11-26T10:38:50.118Z,54.00
2018-11-26T10:39:50.104Z,53.30
2018-11-26T10:40:50.096Z,54.30
2018-11-26T10:41:50.125Z,56.90
2018-11-26T10:42:50.095Z,56.10
2018-11-26T10:43:50.141Z,55.70
2018-11-26T10:44:50.098Z,56.30
2018-11-26T10:45:50.085Z,55.20
2018-11-26T10:46:50.077Z,56.60
2018-11-26T10:47:50.097Z,55.80
2018-11-26T10:48:50.101Z,54.50
2018-11-26T10:49:50.093Z,54.90
2018-11-26T10:50:50.126Z,56.20
2018-11-26T10:51:50.078Z,55.20
2018-11-26T10:52:50.080Z,55.20
2018-11-26T10:53:50.099Z,54.90
2018-11-26T10:54:50.077Z,55.10
2018-11-26T10:55:50.081Z,56.60
2018-11-26T10:56:50.103Z,56.80
2018-11-26T10:57:50.058Z,56.10
2018-11-26T10:58:50.077Z,57.00
2018-11-26T10:59:50.064Z,58.20
2018-11-26T11:00:50.065Z,57.70
2018-11-26T11:01:50.058Z,58.60
2018-11-26T11:02:50.078Z,57.40
2018-11-26T11:03:50.067Z,55.90
2018-11-26T11:04:50.072Z,57.80
2018-11-26T11:05:50.064Z,57.80
2018-11-26T11:06:55.696Z,55.80
2018-11-26T11:07:50.047Z,57.80
2018-11-26T11:08:50.046Z,56.40
2018-11-26T11:09:50.067Z,56.00
2018-11-26T11:10:50.050Z,54.60
2018-11-26T11:11:50.050Z,56.20
2018-11-26T11:12:50.042Z,56.30
2018-11-26T11:13:50.041Z,58.60
2018-11-26T11:14:50.039Z,56.10
2018-11-26T11:15:50.055Z,56.00
2018-11-26T11:16:50.052Z,54.50
2018-11-26T11:17:50.048Z,53.20
2018-11-26T11:18:50.049Z,54.50
2018-11-26T11:19:50.059Z,53.70
2018-11-26T11:20:50.053Z,55.00
2018-11-26T11:21:50.091Z,53.80
2018-11-26T11:22:50.039Z,57.10
2018-11-26T11:23:50.036Z,54.80
2018-11-26T11:24:50.032Z,55.60
2018-11-26T11:25:50.041Z,54.30
2018-11-26T11:26:50.039Z,52.70
2018-11-26T11:27:50.043Z,54.60
2018-11-26T11:28:50.040Z,56.10
2018-11-26T11:29:50.026Z,55.90
2018-11-26T11:30:50.037Z,55.30
2018-11-26T11:31:50.047Z,55.40
2018-11-26T11:32:50.046Z,55.20
2018-11-26T11:33:50.022Z,57.90
2018-11-26T11:34:50.013Z,57.30
2018-11-26T11:35:50.074Z,54.40
2018-11-26T11:36:50.026Z,52.10
2018-11-26T11:37:50.017Z,53.70
2018-11-26T11:38:50.018Z,53.20
2018-11-26T11:39:50.002Z,51.20
2018-11-26T11:40:50.021Z,54.60
2018-11-26T11:41:50.017Z,50.90
2018-11-26T11:42:50.007Z,53.50
2018-11-26T11:43:50.007Z,53.70
2018-11-26T11:44:50.004Z,51.70
2018-11-26T11:45:49.998Z,52.40
2018-11-26T11:46:49.999Z,49.70
2018-11-26T11:47:50.034Z,52.60
2018-11-26T11:48:49.989Z,52.70
2018-11-26T11:49:49.994Z,51.90
2018-11-26T11:50:50.006Z,54.50
2018-11-26T11:51:49.985Z,50.40
2018-11-26T11:52:49.992Z,52.20
2018-11-26T11:53:50.011Z,49.80
2018-11-26T11:54:49.999Z,49.90
2018-11-26T11:55:50.008Z,50.40
2018-11-26T11:56:49.992Z,47.90
2018-11-26T11:57:50.021Z,50.30
2018-11-26T11:58:49.969Z,53.50
2018-11-26T11:59:50.040Z,51.00
2018-11-26T12:00:49.974Z,51.40
2018-11-26T12:01:49.978Z,50.70
2018-11-26T12:02:49.985Z,49.30
2018-11-26T12:03:49.968Z,49.90
2018-11-26T12:04:49.983Z,47.60
2018-11-26T12:05:49.993Z,48.80
2018-11-26T12:06:50.019Z,46.90
2018-11-26T12:07:49.989Z,51.10
2018-11-26T12:08:49.967Z,46.90
2018-11-26T12:09:49.983Z,48.40
2018-11-26T12:10:49.975Z,45.60
2018-11-26T12:11:49.999Z,47.80
2018-11-26T12:12:50.004Z,47.30
2018-11-26T12:13:50.028Z,47.20
2018-11-26T12:14:50.013Z,48.10
2018-11-26T12:15:49.959Z,48.10
2018-11-26T12:16:49.968Z,49.10
2018-11-26T12:17:49.963Z,46.70
2018-11-26T12:18:49.993Z,48.00
2018-11-26T12:19:49.963Z,46.50
2018-11-26T12:20:49.979Z,47.70
2018-11-26T12:21:50.181Z,49.70
2018-11-26T12:22:49.943Z,46.60
2018-11-26T12:23:49.987Z,48.50
2018-11-26T12:24:49.946Z,50.80
2018-11-26T12:25:50.600Z,49.80
2018-11-26T12:26:49.950Z,48.90
2018-11-26T12:27:49.946Z,47.50
2018-11-26T12:28:49.943Z,47.20
2018-11-26T12:29:49.955Z,46.20
2018-11-26T12:30:49.965Z,47.90
2018-11-26T12:31:49.951Z,46.90
2018-11-26T12:32:49.960Z,46.50
2018-11-26T12:33:49.952Z,47.10
2018-11-26T12:34:49.961Z,47.60
2018-11-26T12:35:49.949Z,48.40
2018-11-26T12:36:52.496Z,47.80
2018-11-26T12:37:49.923Z,46.70
2018-11-26T12:38:49.929Z,48.20
2018-11-26T12:39:49.943Z,48.60
2018-11-26T12:40:49.950Z,46.00
2018-11-26T12:41:49.941Z,46.70
2018-11-26T12:42:49.915Z,47.40
2018-11-26T12:43:50.713Z,47.00
2018-11-26T12:44:49.947Z,46.40
2018-11-26T12:45:49.904Z,48.60
2018-11-26T12:46:49.932Z,45.80
2018-11-26T12:47:49.954Z,45.50
2018-11-26T12:48:49.918Z,47.50
2018-11-26T12:49:49.927Z,45.80
2018-11-26T12:50:49.941Z,46.00
2018-11-26T12:51:49.914Z,46.00
2018-11-26T12:52:49.920Z,46.90